Hartland, Minnesota
Current Conditions -  °F | °C
As of 9:12 PM on Thursday 18 Dec 2014 (Local Time) from KAEL Reporting Station
Overcast Overcast  
Wind Chill: 21°   Ceiling: 7000
Heat Index: 21°   Visibility: 7mi
Dew Point: 19°   Wind: 3mph
Humidity: 93%   Direction: 120°ESE
Pressure: 30.23"   Gusts: NA
Location:  43.8°N, 93.49°W
Report Text: KAEL 190312Z AUTO 12003KT 7SM OVC070 M06/M07 A3023 RMK AO2
Loading
Personal Weather Stations






























Interactive Weather Map New forecast layout! Learn more

10-Day Weather Forecast

Advertisements
Track Severe Weather on mobile